Messwerte Pago Pago

Temperatur

Temperatur
°C
1574136000 17.00 17.00 28
1574139600 18.00 18.00 28
1574143200 19.00 19.00 27
1574146800 20.00 20.00 26
1574150400 21.00 21.00 26
1574154000 22.00 22.00 25
1574157600 23.00 23.00 25
1574161200 0.00 0.00 25
1574164800 1.00 1.00 25
1574168400 2.00 2.00
1574172000 3.00 3.00 25
1574175600 4.00 4.00 25
1574179200 5.00 5.00 25
1574182800 6.00 6.00 25
1574186400 7.00 7.00 27
1574190000 8.00 8.00 29
1574193600 9.00 9.00 30
1574197200 10.00 10.00 32
1574200800 11.00 11.00 31
1574204400 12.00 12.00 32
1574208000 13.00 13.00 31
1574211600 14.00 14.00 30
1574215200 15.00 15.00
1574218800 16.00 16.00 30

Aktuellste Messwerte

Wettercharakter
Wetter: bedeckt
Temperatur
29 °C
Feuchtigkeit
70 %
Wind
0 km/h, -
Luftdruck
1006 hPa
Messzeit: 19. November 2019, 17.00Datenquelle: METAR

Wind

Windrichtung Böen Mittelwind
° km/h km/h
1574136000 17.00 16.00 - 17.00 10
1574139600 18.00 17.00 - 18.00 5
1574143200 19.00 18.00 - 19.00 5
1574146800 20.00 19.00 - 20.00 5
1574150400 21.00 20.00 - 21.00 5
1574154000 22.00 21.00 - 22.00 5
1574157600 23.00 22.00 - 23.00 5
1574161200 0.00 23.00 - 0.00 5
1574164800 1.00 0.00 - 1.00 5
1574168400 2.00 1.00 - 2.00
1574172000 3.00 2.00 - 3.00 5
1574175600 4.00 3.00 - 4.00 0
1574179200 5.00 4.00 - 5.00 5
1574182800 6.00 5.00 - 6.00 0
1574186400 7.00 6.00 - 7.00 0
1574190000 8.00 7.00 - 8.00 5
1574193600 9.00 8.00 - 9.00 10
1574197200 10.00 9.00 - 10.00 10
1574200800 11.00 10.00 - 11.00 350° 20
1574204400 12.00 11.00 - 12.00 310° 15
1574208000 13.00 12.00 - 13.00 10
1574211600 14.00 13.00 - 14.00 5
1574215200 15.00 14.00 - 15.00
1574218800 16.00 15.00 - 16.00 5

Ihre Wetterstation

Fehlt Ihre Wetterstation auf unserem Portal?

Schreiben Sie an network@meteonews.ch

Klima

Wann ist es am wärmsten? Wann regnet es am wenigsten? Unsere Klimadaten geben Auskunft.